Home > Products > Valid Products > MTR

000
SAUS45 KPUB 060658
MTRSPD
METAR KSPD 060656Z AUTO 18015KT 13/06 A3004 RMK AO1 SLP117 T01330061
402830061





000
SAUS45 KPUB 060557
MTRSPD
METAR KSPD 060556Z AUTO 17018KT 14/06 A3004 RMK AO1 SLP118 T01440061
10261 20144 50004





000
SAUS45 KPUB 060458
MTRSPD
METAR KSPD 060456Z AUTO 16015KT 14/07 A3005 RMK AO1 SLP121 T01440072





000
SAUS45 KPUB 060458
MTRSPD
METAR KSPD 060456Z AUTO 16015KT 14/07 A3005 RMK AO1 SLP121 T01440072





000
SAUS45 KPUB 060358
MTRSPD
METAR KSPD 060356Z AUTO 14012KT 15/08 A3004 RMK AO1 SLP122 T01500078





000
SAUS45 KPUB 060258
MTRSPD
METAR KSPD 060256Z AUTO 13013KT 17/07 A3003 RMK AO1 SLP121 T01670067
53010





000
SAUS45 KPUB 060157
MTRSPD
METAR KSPD 060156Z AUTO 13009KT 17/06 A3001 RMK AO1 SLP118 T01670061





000
SAUS45 KPUB 060058
MTRSPD
METAR KSPD 060056Z AUTO 14009KT 23/06 A3000 RMK AO1 SLP111 T02280056





000
SAUS45 KPUB 060058
MTRSPD
METAR KSPD 060056Z AUTO 14009KT 23/06 A3000 RMK AO1 SLP111 T02280056





000
SAUS45 KPUB 052357
MTRSPD
METAR KSPD 052356Z AUTO 18011KT 26/02 A3000 RMK AO1 SLP109 T02610022
10283 20250 56012





000
SAUS45 KPUB 052258
MTRSPD
METAR KSPD 052256Z AUTO 09005KT 27/04 A3000 RMK AO1 SLP108 T02720044





000
SAUS45 KPUB 052258
MTRSPD
METAR KSPD 052256Z AUTO 09005KT 27/04 A3000 RMK AO1 SLP108 T02720044





000
SAUS45 KPUB 052157
MTRSPD
METAR KSPD 052156Z AUTO 17004KT 27/03 A3002 RMK AO1 SLP114 T02720033





000
SAUS45 KPUB 052057
MTRSPD
METAR KSPD 052056Z AUTO 00000KT 27/03 A3004 RMK AO1 SLP122 T02720033
58018





000
SAUS45 KPUB 051958
MTRSPD
METAR KSPD 051956Z AUTO 00000KT 27/04 A3006 RMK AO1 SLP130 T02720039





000
SAUS45 KPUB 051958
MTRSPD
METAR KSPD 051956Z AUTO 00000KT 27/04 A3006 RMK AO1 SLP130 T02720039





000
SAUS45 KPUB 051858
MTRSPD
METAR KSPD 051856Z AUTO 00000KT 26/05 A3008 RMK AO1 SLP137 T02560050





000
SAUS45 KPUB 051757
MTRSPD
METAR KSPD 051756Z AUTO 25/06 A3010 RMK AO1 SLP142 P0001 60001
T02500056 10256 20072 57007





000
SAUS45 KPUB 051757
MTRSPD
METAR KSPD 051756Z AUTO 25/06 A3010 RMK AO1 SLP142 P0001 60001
T02500056 10256 20072 57007





000
SAUS45 KPUB 051657
MTRSPD
METAR KSPD 051656Z AUTO 30004KT 23/04 A3010 RMK AO1 SLP147 T02330044





000
SAUS45 KPUB 051657
MTRSPD
METAR KSPD 051656Z AUTO 30004KT 23/04 A3010 RMK AO1 SLP147 T02330044





000
SAUS45 KPUB 051557
MTRSPD
METAR KSPD 051556Z AUTO 32004KT 22/05 A3011 RMK AO1 SLP149 T02170050





000
SAUS45 KPUB 051458
MTRSPD
METAR KSPD 051456Z AUTO 22006KT 18/03 A3012 RMK AO1 SLP156 T01780033
50004





000
SAUS45 KPUB 051458
MTRSPD
METAR KSPD 051456Z AUTO 22006KT 18/03 A3012 RMK AO1 SLP156 T01780033
50004





000
SAUS45 KPUB 051357
MTRSPD
METAR KSPD 051356Z AUTO 21010KT 14/04 A3013 RMK AO1 SLP162 T01390044





000
SAUS45 KPUB 051257
MTRSPD
METAR KSPD 051256Z AUTO 22007KT 11/04 A3012 RMK AO1 SLP157 T01060039





000
SAUS45 KPUB 051257
MTRSPD
METAR KSPD 051256Z AUTO 22007KT 11/04 A3012 RMK AO1 SLP157 T01060039





000
SAUS45 KPUB 051157
MTRSPD
METAR KSPD 051156Z AUTO 18010KT 08/03 A3011 RMK AO1 SLP151 T00830033
10100 20061 58008





000
SAUS45 KPUB 051157
MTRSPD
METAR KSPD 051156Z AUTO 18010KT 08/03 A3011 RMK AO1 SLP151 T00830033
10100 20061 58008





000
SAUS45 KPUB 051057
MTRSPD
METAR KSPD 051056Z AUTO 18011KT 09/03 A3012 RMK AO1 SLP153 T00890033





000
SAUS45 KPUB 051057
MTRSPD
METAR KSPD 051056Z AUTO 18011KT 09/03 A3012 RMK AO1 SLP153 T00890033





000
SAUS45 KPUB 050957
MTRSPD
METAR KSPD 050956Z AUTO 19005KT 08/04 A3013 RMK AO1 SLP158 T00780039





000
SAUS45 KPUB 050858
MTRSPD
METAR KSPD 050856Z AUTO 21005KT 07/04 A3013 RMK AO1 SLP161 T00720039
58007





000
SAUS45 KPUB 050758
MTRSPD
METAR KSPD 050756Z AUTO 22007KT 07/04 A3015 RMK AO1 SLP167 T00720044





000
SAUS45 KPUB 050657
MTRSPD
METAR KSPD 050656Z AUTO 23008KT 08/05 A3016 RMK AO1 SLP169 T00830050
402390028





000
SAUS45 KPUB 050557
MTRSPD
METAR KSPD 050556Z AUTO 20008KT 10/06 A3016 RMK AO1 SLP167 T01000056
10228 20094 51005





000
SAUS45 KPUB 050557
MTRSPD
METAR KSPD 050556Z AUTO 20008KT 10/06 A3016 RMK AO1 SLP167 T01000056
10228 20094 51005





000
SAUS45 KPUB 050457
MTRSPD
METAR KSPD 050456Z AUTO 19008KT 10/06 A3015 RMK AO1 SLP166 T01000056





000
SAUS45 KPUB 050357
MTRSPD
METAR KSPD 050356Z AUTO 16007KT 12/06 A3015 RMK AO1 SLP165 T01220056





000
SAUS45 KPUB 050357
MTRSPD
METAR KSPD 050356Z AUTO 16007KT 12/06 A3015 RMK AO1 SLP165 T01220056





000
SAUS45 KPUB 050258
MTRSPD
METAR KSPD 050256Z AUTO 16009KT 13/06 A3014 RMK AO1 SLP163 T01280056
53003





000
SAUS45 KPUB 050258
MTRSPD
METAR KSPD 050256Z AUTO 16009KT 13/06 A3014 RMK AO1 SLP163 T01280056
53003





000
SAUS45 KPUB 050157
MTRSPD
METAR KSPD 050156Z AUTO 12007KT 14/06 A3012 RMK AO1 SLP159 T01440056





000
SAUS45 KPUB 050058
MTRSPD
METAR KSPD 050056Z AUTO 10007KT 20/05 A3012 RMK AO1 SLP160 T02000050





000
SAUS45 KPUB 050058
MTRSPD
METAR KSPD 050056Z AUTO 10007KT 20/05 A3012 RMK AO1 SLP160 T02000050





000
SAUS45 KPUB 042357
MTRSPD
METAR KSPD 042356Z AUTO 05006KT 23/03 A3013 RMK AO1 SLP163 T02280028
10239 20211 56009





000
SAUS45 KPUB 042357
MTRSPD
METAR KSPD 042356Z AUTO 05006KT 23/03 A3013 RMK AO1 SLP163 T02280028
10239 20211 56009





000
SAUS45 KPUB 042257
MTRSPD
METAR KSPD 042256Z AUTO 09008KT 050V140 23/02 A3014 RMK AO1 SLP165
T02330017





000
SAUS45 KPUB 042257
MTRSPD
METAR KSPD 042256Z AUTO 09008KT 050V140 23/02 A3014 RMK AO1 SLP165
T02330017





000
SAUS45 KPUB 042157
MTRSPD
METAR KSPD 042156Z AUTO 36005KT 24/02 A3014 RMK AO1 SLP168 T02390017





000
SAUS45 KPUB 042157
MTRSPD
METAR KSPD 042156Z AUTO 36005KT 24/02 A3014 RMK AO1 SLP168 T02390017





000
SAUS45 KPUB 042058
MTRSPD
METAR KSPD 042056Z AUTO VRB04KT 23/03 A3016 RMK AO1 SLP177 T02330028
56016





000
SAUS45 KPUB 042058
MTRSPD
METAR KSPD 042056Z AUTO VRB04KT 23/03 A3016 RMK AO1 SLP177 T02330028
56016





000
SAUS45 KPUB 041957
MTRSPD
METAR KSPD 041956Z AUTO 08005KT 23/02 A3018 RMK AO1 SLP180 T02280017





000
SAUS45 KPUB 041857
MTRSPD
METAR KSPD 041856Z AUTO 35009KT 23/03 A3020 RMK AO1 SLP190 T02280028





000
SAUS45 KPUB 041857
MTRSPD
METAR KSPD 041856Z AUTO 35009KT 23/03 A3020 RMK AO1 SLP190 T02280028





000
SAUS45 KPUB 041757
MTRSPD
METAR KSPD 041756Z AUTO VRB04KT 22/02 A3021 RMK AO1 SLP194 T02170022
10222 20061 58004





000
SAUS45 KPUB 041757
MTRSPD
METAR KSPD 041756Z AUTO VRB04KT 22/02 A3021 RMK AO1 SLP194 T02170022
10222 20061 58004





000
SAUS45 KPUB 041657
MTRSPD
METAR KSPD 041656Z AUTO 35008KT 22/04 A3023 RMK AO1 SLP199 T02170039





000
SAUS45 KPUB 041557
MTRSPD
METAR KSPD 041556Z AUTO 33010KT 20/03 A3023 RMK AO1 SLP201 T02000033





000
SAUS45 KPUB 041457
MTRSPD
METAR KSPD 041456Z AUTO 32011KT 18/04 A3023 RMK AO1 SLP203 T01830039
50006





000
SAUS45 KPUB 041357
MTRSPD
METAR KSPD 041356Z AUTO 31012KT 15/03 A3023 RMK AO1 SLP205 T01500028





000
SAUS45 KPUB 041357
MTRSPD
METAR KSPD 041356Z AUTO 31012KT 15/03 A3023 RMK AO1 SLP205 T01500028





000
SAUS45 KPUB 041258
MTRSPD
METAR KSPD 041256Z AUTO 29009KT 09/03 A3022 RMK AO1 SLP202 T00890028





000
SAUS45 KPUB 041258
MTRSPD
METAR KSPD 041256Z AUTO 29009KT 09/03 A3022 RMK AO1 SLP202 T00890028





000
SAUS45 KPUB 041157
MTRSPD
METAR KSPD 041156Z AUTO 29014KT 06/02 A3021 RMK AO1 SLP197 T00610017
10061 20028 53004





000
SAUS45 KPUB 041057
MTRSPD
METAR KSPD 041056Z AUTO 29010KT 06/01 A3019 RMK AO1 SLP191 T00560011





000
SAUS45 KPUB 041057
MTRSPD
METAR KSPD 041056Z AUTO 29010KT 06/01 A3019 RMK AO1 SLP191 T00560011





000
SAUS45 KPUB 040957
MTRSPD
METAR KSPD 040956Z AUTO 29009KT 05/01 A3019 RMK AO1 SLP192 T00500011





000
SAUS45 KPUB 040857
MTRSPD
METAR KSPD 040856Z AUTO 30009KT 03/01 A3019 RMK AO1 SLP195 T00330006
58001





000
SAUS45 KPUB 040857
MTRSPD
METAR KSPD 040856Z AUTO 30009KT 03/01 A3019 RMK AO1 SLP195 T00330006
58001





000
SAUS45 KPUB 040758
MTRSPD
METAR KSPD 040756Z AUTO 28005KT 06/01 A3020 RMK AO1 SLP194 T00560006





000
SAUS45 KPUB 040657
MTRSPD
METAR KSPD 040656Z AUTO 28005KT 04/01 A3020 RMK AO1 SLP200 T00390006
401890022





000
SAUS45 KPUB 040557
MTRSPD
METAR KSPD 040556Z AUTO 26005KT 06/01 A3020 RMK AO1 SLP195 T00560006
10178 20028 51008





000
SAUS45 KPUB 040557
MTRSPD
METAR KSPD 040556Z AUTO 26005KT 06/01 A3020 RMK AO1 SLP195 T00560006
10178 20028 51008





000
SAUS45 KPUB 040457
MTRSPD
METAR KSPD 040456Z AUTO 28005KT 06/01 A3019 RMK AO1 SLP196 T00610006





000
SAUS45 KPUB 040457
MTRSPD
METAR KSPD 040456Z AUTO 28005KT 06/01 A3019 RMK AO1 SLP196 T00610006





000
SAUS45 KPUB 040357
MTRSPD
METAR KSPD 040356Z AUTO 29007KT 07/01 A3019 RMK AO1 SLP193 T00670006





000
SAUS45 KPUB 040357
MTRSPD
METAR KSPD 040356Z AUTO 29007KT 07/01 A3019 RMK AO1 SLP193 T00670006





000
SAUS45 KPUB 040258
MTRSPD
METAR KSPD 040256Z AUTO 33006KT 07/01 A3017 RMK AO1 SLP189 T00720006
53012





000
SAUS45 KPUB 040258
MTRSPD
METAR KSPD 040256Z AUTO 33006KT 07/01 A3017 RMK AO1 SLP189 T00720006
53012





000
SAUS45 KPUB 040158
MTRSPD
METAR KSPD 040156Z AUTO 02008KT 09/01 A3015 RMK AO1 SLP183 T00890011





000
SAUS45 KPUB 040158
MTRSPD
METAR KSPD 040156Z AUTO 02008KT 09/01 A3015 RMK AO1 SLP183 T00890011





000
SAUS45 KPUB 040058
MTRSPD
METAR KSPD 040056Z AUTO 01012KT 16/M01 A3014 RMK AO1 SLP173
T01561006





000
SAUS45 KPUB 032357
MTRSPD
METAR KSPD 032356Z AUTO 36013G23KT 18/M02 A3013 RMK AO1 PK WND
35029/2258 SLP169 T01781017 10189 20156 55000





000
SAUS45 KPUB 032257
MTRSPD
METAR KSPD 032256Z AUTO 36019G27KT 18/M02 A3012 RMK AO1 PK WND
36030/2207 SLP164 T01831022





000
SAUS45 KPUB 032257
MTRSPD
METAR KSPD 032256Z AUTO 36019G27KT 18/M02 A3012 RMK AO1 PK WND
36030/2207 SLP164 T01831022





000
SAUS45 KPUB 032157
MTRSPD
METAR KSPD 032156Z AUTO 35020G25KT 19/00 A3012 RMK AO1 PK WND
34032/2117 SLP165 T01890000





000
SAUS45 KPUB 032058
MTRSPD
METAR KSPD 032056Z AUTO 34026G32KT 18/00 A3013 RMK AO1 PK WND
34035/2001 SLP171 T01830000 53000





000
SAUS45 KPUB 032058
MTRSPD
METAR KSPD 032056Z AUTO 34026G32KT 18/00 A3013 RMK AO1 PK WND
34035/2001 SLP171 T01830000 53000





000
SAUS45 KPUB 031957
MTRSPD
METAR KSPD 031956Z AUTO 35020G36KT 18/00 A3013 RMK AO1 PK WND
34036/1947 SLP170 T01780000





000
SAUS45 KPUB 031857
MTRSPD
METAR KSPD 031856Z AUTO 34017G32KT 17/01 A3013 RMK AO1 PK WND
35034/1814 SLP177 T01670006





000
SAUS45 KPUB 031757
MTRSPD
METAR KSPD 031756Z AUTO 34024G37KT 17/00 A3013 RMK AO1 PK WND
35037/1753 SLP178 T01720000 10172 20072 58001





000
SAUS45 KPUB 031657
MTRSPD
METAR KSPD 031656Z AUTO 34019G28KT 14/02 A3014 RMK AO1 PK WND
34030/1646 SLP184 T01440017





000
SAUS45 KPUB 031657
MTRSPD
METAR KSPD 031656Z AUTO 34019G28KT 14/02 A3014 RMK AO1 PK WND
34030/1646 SLP184 T01440017





000
SAUS45 KPUB 031557
MTRSPD
METAR KSPD 031556Z AUTO 32017G24KT 15/02 A3014 RMK AO1 SLP183
T01500022





000
SAUS45 KPUB 031458
MTRSPD
METAR KSPD 031456Z AUTO 33015G21KT 14/02 A3013 RMK AO1 SLP178
T01390017 51012





000
SAUS45 KPUB 031357
MTRSPD
METAR KSPD 031356Z AUTO 32013KT 12/02 A3012 RMK AO1 SLP172 T01170022





000
SAUS45 KPUB 031257
MTRSPD
METAR KSPD 031256Z AUTO 31011KT 08/02 A3012 RMK AO1 SLP169 T00780022





000
SAUS45 KPUB 031257
MTRSPD
METAR KSPD 031256Z AUTO 31011KT 08/02 A3012 RMK AO1 SLP169 T00780022





000
SAUS45 KPUB 031157
MTRSPD
METAR KSPD 031156Z AUTO 34016KT 08/02 A3009 RMK AO1 SLP160 T00780022
10083 20017 53005





000
SAUS45 KPUB 031157
MTRSPD
METAR KSPD 031156Z AUTO 34016KT 08/02 A3009 RMK AO1 SLP160 T00780022
10083 20017 53005





000
SAUS45 KPUB 031057
MTRSPD
METAR KSPD 031056Z AUTO 29004KT 08/02 A3007 RMK AO1 SLP149 T00830022





000
SAUS45 KPUB 031057
MTRSPD
METAR KSPD 031056Z AUTO 29004KT 08/02 A3007 RMK AO1 SLP149 T00830022





000
SAUS45 KPUB 030957
MTRSPD
METAR KSPD 030956Z AUTO 31003KT 07/03 A3006 RMK AO1 SLP152 T00670033





000
SAUS45 KPUB 030857
MTRSPD
METAR KSPD 030856Z AUTO 25003KT 06/03 A3008 RMK AO1 SLP157 T00560033
57013





000
SAUS45 KPUB 030857
MTRSPD
METAR KSPD 030856Z AUTO 25003KT 06/03 A3008 RMK AO1 SLP157 T00560033
57013





000
SAUS45 KPUB 030757
MTRSPD
METAR KSPD 030756Z AUTO 25004KT 05/03 A3009 RMK AO1 SLP163 T00500028





    US Dept of Commerce
    National Oceanic and Atmospheric Administration
    National Weather Service
    1325 East West Highway
    Silver Spring, MD 20910
    Page Author: NWS Internet Services Team
Disclaimer
Information Quality
Credits
Glossary
Privacy Policy
Freedom of Information Act (FOIA)
About Us
Career Opportunities